• Join FlightAware (Why Join?)
  • Login
  • US Flag 
10:04AM EDT


 

Airport Tracker/Info


-or-


 

Live Flight TrackerFlight Track Log ✈ AAY863 ✈ 01-May-2014 ✈ KCID - KPIE

Flight Track Log - Related Links

Times and Time Zones

All times are in EDT time to prevent confusion due to time zone crossing. See the AAY863 flight status page for this flight to view local times or setup timezone preferences in your user account.

Time Position Orientation Groundspeed Altitude Reporting Facility
EDT Latitude Longitude Course Direction KTS MPH feet Rate Location/Type
06:49PM 41.8827 -91.7429 249° West 145 167 2,300  Level FlightAware ADS-B (KCID)
06:50PM 41.8688 -91.7679 208° Southwest 197 227 2,900 1,200 Climbing FlightAware ADS-B (KCID)
06:50PM 41.8550 -91.7704 175° South 228 262 3,200 1,200 Climbing FlightAware ADS-B (KCID)
06:50PM 41.8257 -91.7594 157° South 276 318 3,700 1,260 Climbing FlightAware ADS-B (KCID)
06:50PM 41.8136 -91.7550 140° Southeast 248 285 4,100 3,060 Climbing Chicago Center
06:51PM 41.7912 -91.7392 157° South 283 326 5,200 4,080 Climbing FlightAware ADS-B (KCID)
06:51PM 41.7726 -91.7292 158° South 282 325 6,100 2,580 Climbing FlightAware ADS-B (KCID)
06:51PM 41.7406 -91.7147 158° South 273 314 7,300 3,240 Climbing Chicago Center
06:52PM 41.7266 -91.7062 160° South 288 331 8,100 3,900 Climbing FlightAware ADS-B (KCID)
06:52PM 41.6914 -91.6898 161° South 295 339 9,400 2,160 Climbing FlightAware ADS-B (KCID)
06:52PM 41.6636 -91.6781 160° South 288 331 10,200 1,920 Climbing Chicago Center
06:53PM 41.6247 -91.6608 162° South 331 381 11,000 2,160 Climbing FlightAware ADS-B (KCID)
06:54PM 41.5618 -91.6274 145° Southeast 361 415 12,400 1,080 Climbing FlightAware ADS-B (KCID)
06:54PM 41.5764 -91.6400 162° South 334 384 11,800 1,800 Descending Chicago Center
06:55PM 41.4967 -91.5558 142° Southeast 364 419 14,300 2,460 Climbing Chicago Center
06:56PM 41.3771 -91.4451 140° Southeast  Level FlightAware Approximate
06:56PM 41.3992 -91.4458 140° Southeast 381 438 16,900  Level Chicago Center
06:57PM 41.3164 -91.3478 138° Southeast 394 453 19,300 2,160 Climbing Chicago Center
06:58PM 41.2244 -91.2442 140° Southeast 404 465 21,400 1,980 Climbing Chicago Center
06:59PM 41.1353 -91.1458 140° Southeast 414 476 23,400 1,680 Climbing Chicago Center
07:00PM 41.0453 -91.0444 140° Southeast 422 486 24,900 1,200 Climbing Chicago Center
07:01PM 40.9511 -90.9400 140° Southeast 437 503 26,000 960 Climbing Chicago Center
07:02PM 40.8525 -90.8297 140° Southeast 458 527 27,000 1,260 Climbing Chicago Center
07:03PM 40.7294 -90.6939 140° Southeast 478 550 28,700 1,440 Climbing Chicago Center
07:04PM 40.6278 -90.5814 140° Southeast 478 550 30,100 1,200 Climbing Chicago Center
07:05PM 40.5236 -90.4672 140° Southeast 485 558 31,300 1,260 Climbing Chicago Center
07:06PM 40.4233 -90.3583 140° Southeast 479 551 32,800 720 Climbing Chicago Center
07:10PM 39.9996 -89.8989 141° Southeast 469 540 35,000 360 Climbing FlightAware ADS-B
07:11PM 39.8455 -89.7342 141° Southeast 478 550 35,000  Level FlightAware ADS-B
07:12PM 39.7890 -89.6740 141° Southeast 473 544 35,100  Climbing FlightAware ADS-B
07:13PM 39.7251 -89.6061 141° Southeast 475 547 35,000 240 Descending FlightAware ADS-B
07:13PM 39.6683 -89.5458 141° Southeast 478 550 35,400 660 Climbing FlightAware ADS-B
07:14PM 39.6193 -89.4938 141° Southeast 480 552 35,700 660 Climbing FlightAware ADS-B
07:14PM 39.5516 -89.4224 141° Southeast 481 554 36,200 840 Climbing FlightAware ADS-B
07:15PM 39.4822 -89.3494 141° Southeast 480 552 36,800 660 Climbing FlightAware ADS-B
07:15PM 39.4271 -89.2917 141° Southeast 478 550 37,000 180 Climbing FlightAware ADS-B
07:16PM 39.3739 -89.2360 141° Southeast 471 542 37,000  Level FlightAware ADS-B
07:17PM 39.3077 -89.1668 141° Southeast 469 540 37,000  Level FlightAware ADS-B
07:17PM 39.2515 -89.1082 141° Southeast 472 543 37,000  Level FlightAware ADS-B
07:18PM 39.1891 -89.0431 141° Southeast 474 545 37,000 60 Level FlightAware ADS-B
07:18PM 39.1269 -88.9784 141° Southeast 476 548 37,100  Climbing FlightAware ADS-B
07:19PM 39.0725 -88.9221 141° Southeast 477 549 37,000 -120 Descending FlightAware ADS-B
07:20PM 39.0163 -88.8640 141° Southeast 478 550 37,000  Level FlightAware ADS-B
07:20PM 38.9530 -88.7985 141° Southeast 477 549 37,000  Level FlightAware ADS-B
07:21PM 38.8786 -88.7220 141° Southeast 477 549 37,000  Level FlightAware ADS-B
07:21PM 38.8275 -88.6697 141° Southeast 477 549 37,000  Level FlightAware ADS-B
07:22PM 38.7578 -88.5982 141° Southeast 477 549 37,000  Level FlightAware ADS-B
07:23PM 38.6908 -88.5300 142° Southeast 477 549 37,000  Level FlightAware ADS-B
07:23PM 38.6410 -88.4791 141° Southeast 476 548 37,000  Level FlightAware ADS-B
07:24PM 38.5717 -88.4086 141° Southeast 475 547 37,000  Level FlightAware ADS-B
07:24PM 38.5170 -88.3532 141° Southeast 473 544 37,000  Level FlightAware ADS-B
07:25PM 38.4665 -88.3018 141° Southeast 472 543 37,000  Level FlightAware ADS-B
07:25PM 38.4182 -88.2526 141° Southeast 471 542 37,000 60 Level FlightAware ADS-B
07:26PM 38.3584 -88.1923 142° Southeast 466 536 37,100  Climbing FlightAware ADS-B
07:27PM 38.3006 -88.1344 142° Southeast 465 535 37,000 -120 Descending FlightAware ADS-B
07:27PM 38.2314 -88.0647 142° Southeast 464 534 37,000  Level FlightAware ADS-B
07:28PM 38.1782 -88.0115 142° Southeast 465 535 37,000  Level FlightAware ADS-B
07:28PM 38.1149 -87.9481 142° Southeast 468 539 37,000  Level FlightAware ADS-B
07:29PM 38.0425 -87.8759 142° Southeast 468 539 37,000  Level FlightAware ADS-B
07:30PM 37.9769 -87.8106 142° Southeast 467 537 37,000 60 Level FlightAware ADS-B
07:30PM 37.9205 -87.7610 149° Southeast 453 521 37,100 60 Climbing FlightAware ADS-B
07:31PM 37.8677 -87.7247 154° Southeast 441 507 37,100 -60 Level FlightAware ADS-B
07:36PM 38.1782 -88.0115 154° Southeast 436 502 37,000 -60 Descending FlightAware ADS-B
07:37PM 37.2183 -87.3283 154° Southeast 436 502 37,000  Level Memphis Center
07:43PM 36.5254 -86.9137 154° Southeast 435 501 37,100  Climbing FlightAware ADS-B
07:44PM 36.3978 -86.8380 154° Southeast 431 496 37,000 -60 Descending FlightAware ADS-B (KMDQ)
07:45PM 36.3259 -86.7956 155° Southeast 429 494 37,000  Level FlightAware ADS-B (KMDQ)
07:46PM 36.2497 -86.7507 155° Southeast 425 489 37,000  Level FlightAware ADS-B (KMDQ)
07:46PM 36.1832 -86.7115 155° Southeast 422 486 37,000  Level FlightAware ADS-B (KMDQ)
07:47PM 36.1080 -86.6700 158° South 413 475 37,000  Level FlightAware ADS-B (KMDQ)
07:47PM 36.0369 -86.6349 158° South 414 476 37,000  Level FlightAware ADS-B (KMDQ)
07:48PM 35.9719 -86.6027 158° South 414 476 37,000  Level FlightAware ADS-B (KMDQ)
07:49PM 35.8953 -86.5646 158° South 415 478 37,000  Level FlightAware ADS-B (KMDQ)
07:49PM 35.8252 -86.5300 158° South 416 479 37,000  Level FlightAware ADS-B (KMDQ)
07:50PM 35.7553 -86.4954 158° South 417 480 37,000  Level FlightAware ADS-B (KMDQ)
07:51PM 35.6793 -86.4579 158° South 419 482 37,000 60 Level FlightAware ADS-B (KMDQ)
07:52PM 35.6142 -86.4261 158° South 419 482 37,100 60 Climbing FlightAware ADS-B (KMDQ)
07:52PM 35.5363 -86.3876 158° South 418 481 37,100 -120 Level FlightAware ADS-B (KMDQ)
07:53PM 35.4635 -86.3517 158° South 417 480 37,000 -120 Descending FlightAware ADS-B (KMDQ)
07:54PM 35.3931 -86.3174 158° South 416 479 37,000  Level FlightAware ADS-B (KMDQ)
07:54PM 35.3241 -86.2838 158° South 418 481 37,000  Level FlightAware ADS-B (KMDQ)
07:55PM 35.2422 -86.2438 158° South 420 483 37,000  Level FlightAware ADS-B (KMDQ)
07:56PM 35.1701 -86.2088 158° South 422 486 37,000  Level FlightAware ADS-B (KMDQ)
07:56PM 35.0988 -86.1742 158° South 424 488 37,000 60 Level FlightAware ADS-B (KMDQ)
07:57PM 35.0329 -86.1423 158° South 425 489 37,100 60 Climbing FlightAware ADS-B (KMDQ)
07:58PM 34.9514 -86.1027 158° South 423 487 37,100 -120 Level FlightAware ADS-B (KMDQ)
07:58PM 34.8795 -86.0681 159° South 423 487 37,000 -120 Descending FlightAware ADS-B (KMDQ)
07:59PM 34.8070 -86.0334 159° South 423 487 37,000  Level FlightAware ADS-B (KMDQ)
07:59PM 34.7396 -86.0009 158° South 422 486 37,000  Level FlightAware ADS-B (KMDQ)
08:01PM 34.6250 -85.9459 159° South 423 487 37,000  Level FlightAware ADS-B (KMDQ)
08:01PM 34.5553 -85.9125 158° South 423 487 37,000 60 Level FlightAware ADS-B (KMDQ)
08:02PM 34.4794 -85.8762 159° South 419 482 37,100 60 Climbing FlightAware ADS-B (KMDQ)
08:03PM 34.4057 -85.8410 158° South 416 479 37,100 -120 Level FlightAware ADS-B (KMDQ)
08:03PM 34.3366 -85.8080 158° South 413 475 37,000 -120 Descending FlightAware ADS-B (KMDQ)
08:04PM 34.2758 -85.7792 159° South 413 475 37,000  Level FlightAware ADS-B (KMDQ)
08:05PM 34.1951 -85.7410 159° South 413 475 37,000  Level FlightAware ADS-B (KMDQ)
08:05PM 34.1274 -85.7089 159° South 412 474 37,000  Level FlightAware ADS-B (KMDQ)
08:06PM 34.0754 -85.6844 159° South 410 472 37,000  Level FlightAware ADS-B (KMDQ)
08:07PM 33.9386 -85.6236 159° South 414 476 37,000  Level Atlanta Center
08:08PM 33.8431 -85.5794 159° South 409 471 37,000  Level Atlanta Center
08:09PM 33.7372 -85.5275 158° South 409 471 37,000  Level Atlanta Center
08:10PM 33.6314 -85.4783 159° South 409 471 37,000  Level Atlanta Center
08:11PM 33.5233 -85.4292 159° South 409 471 37,000  Level Atlanta Center
08:12PM 33.4175 -85.3803 159° South 409 471 37,000  Level Atlanta Center
08:13PM 33.3117 -85.3339 160° South 409 471 37,000  Level Atlanta Center
08:14PM 33.2056 -85.2828 158° South 409 471 37,000  Level Atlanta Center
08:15PM 33.0997 -85.2342 159° South 409 471 37,000  Level Atlanta Center
08:16PM 32.9833 -85.1806 159° South 421 484 37,000  Level Atlanta Center
08:17PM 32.8981 -85.1522 164° South 409 471 37,000  Level Atlanta Center
08:18PM 32.7689 -85.1111 165° South 399 459 37,100  Climbing Atlanta Center
08:19PM 32.6608 -85.0703 162° South 394 453 37,000 -60 Descending Atlanta Center
08:20PM 32.5525 -85.0369 165° South 397 457 37,000  Level Atlanta Center
08:21PM 32.4483 -84.9989 163° South 397 457 37,000  Level Atlanta Center
08:22PM 32.3358 -84.9608 164° South 397 457 37,000  Level Atlanta Center
08:23PM 32.2400 -84.9353 167° South 403 464 37,000  Level Atlanta Center
08:24PM 32.0944 -84.8814 163° South 414 476 37,000  Level Jacksonville Center
08:25PM 31.9825 -84.8447 164° South 414 476 37,000  Level Jacksonville Center
08:26PM 31.8867 -84.8158 166° South 408 470 37,000  Level Jacksonville Center
08:27PM 31.7767 -84.7792 164° South 408 470 37,000  Level Jacksonville Center
08:28PM 31.6667 -84.7403 163° South 414 476 37,000  Level Jacksonville Center
08:29PM 31.5564 -84.7042 164° South 414 476 37,000  Level Jacksonville Center
08:37PM 30.6959 -84.3124 157° South 419 482 37,000  Level FlightAware ADS-B (KTLH)
08:38PM 30.6486 -84.2897 158° South 420 483 37,000  Level FlightAware ADS-B (KTLH)
08:38PM 30.5797 -84.2565 158° South 421 484 37,000  Level FlightAware ADS-B (KTLH)
08:39PM 30.5199 -84.2278 157° South 422 486 37,000  Level FlightAware ADS-B (KTLH)
08:39PM 30.4575 -84.1978 157° South 422 486 37,000  Level FlightAware ADS-B (KTLH)
08:40PM 30.4148 -84.1774 157° South 422 486 37,000  Level FlightAware ADS-B (KTLH)
08:40PM 30.3476 -84.1451 157° South 421 484 37,000  Level FlightAware ADS-B (KTLH)
08:41PM 30.2879 -84.1166 158° South 421 484 37,000  Level FlightAware ADS-B (KTLH)
08:41PM 30.2308 -84.0894 158° South 421 484 37,000  Level FlightAware ADS-B (KTLH)
08:42PM 30.1851 -84.0676 158° South 421 484 37,000  Level FlightAware ADS-B (KTLH)
08:43PM 30.1055 -84.0297 158° South 422 486 37,000  Level FlightAware ADS-B (KTLH)
08:43PM 30.0258 -83.9936 158° South 425 489 37,000  Level Jacksonville Center
08:44PM 29.9178 -83.9422 158° South 425 489 37,000  Level Jacksonville Center
08:45PM 29.8094 -83.8908 158° South 425 489 37,000 -120 Level Jacksonville Center
08:46PM 29.7036 -83.8228 151° Southeast 430 495 36,800 -1,020 Descending Jacksonville Center
08:47PM 29.5997 -83.7572 151° Southeast 430 495 35,000 -1,920 Descending Jacksonville Center
08:48PM 29.4917 -83.6872 151° Southeast 430 495 33,000 -2,040 Descending Jacksonville Center
08:49PM 29.3958 -83.6244 150° Southeast 442 509 31,000 -1,980 Descending Jacksonville Center
08:50PM 29.2897 -83.5544 150° Southeast 442 509 29,100 -1,860 Descending Jacksonville Center
08:51PM 29.1836 -83.4872 151° Southeast 437 503 27,300 -1,140 Descending Jacksonville Center
08:52PM 29.0839 -83.4225 150° Southeast 431 496 26,900 -1,200 Descending Jacksonville Center
08:53PM 28.9797 -83.3578 151° Southeast 426 490 24,900 -2,160 Descending Jacksonville Center
08:54PM 28.8839 -83.2956 150° Southeast 409 471 22,600 -2,340 Descending Jacksonville Center
08:55PM 28.7903 -83.2336 150° Southeast 398 458 20,300 -2,220 Descending Jacksonville Center
08:56PM 28.6983 -83.1767 151° Southeast 392 451 18,200 -2,040 Descending Jacksonville Center
08:57PM 28.6067 -83.1194 151° Southeast 381 438 16,300 -1,800 Descending Jacksonville Center
08:58PM 28.5333 -83.0833 157° South 353 406 15,200 -1,620 Descending Tampa TRACON
08:58PM 28.5000 -83.0500 139° Southeast 343 395 14,500 -1,620 Descending Tampa TRACON
08:59PM 28.4167 -83.0167 161° South 318 366 13,000 -1,740 Descending Tampa TRACON
09:00PM 28.3500 -82.9833 156° South 316 364 11,300 -1,440 Descending Tampa TRACON
09:02PM 28.2500 -82.9500 164° South 283 326 9,900 -1,320 Descending Tampa TRACON
09:02PM 28.1667 -82.9333 170° South 277 319 8,400 -1,620 Descending Tampa TRACON
09:04PM 28.1000 -82.9000 156° South 280 322 6,700 -1,440 Descending Tampa TRACON
09:04PM 28.0333 -82.8667 156° South 275 316 5,700 -1,200 Descending Tampa TRACON
09:05PM 27.9667 -82.8333 156° South 262 302 4,600 -1,140 Descending Tampa TRACON
09:06PM 27.9000 -82.8000 156° South 224 258 3,400 -1,020 Descending Tampa TRACON
09:07PM 27.8500 -82.7667 149° Southeast 190 219 2,600 -720 Descending Tampa TRACON
09:08PM 27.8167 -82.7500 156° South 171 197 2,200 -660 Descending Tampa TRACON
09:09PM 27.8333 -82.7000 69° East 178 205 1,400 -780 Descending Tampa TRACON
09:10PM 27.8667 -82.6833 24° Northeast 134 154 500 -840 Descending Tampa TRACON